Weather at St-Alphonse/Lac Cloutier Seaplane Base

Public forecast

Using degrees Celsius for public forecast. Weather courtesy of forecast.io.

Closest aviation weather report (METAR) to St-Alphonse/Lac Cloutier Seaplane Base

Closest report is Montreal International (Mirabel) Airport, 34.7 nm (64.3 km) SSW.

2024/05/30 03:00 (retrieved 48 minutes ago)

CYMX 300300Z 33006KT 270V360 25SM FEW220 11/05 A2998 RMK CI2 SLP157

Closest aviation forecast (TAF) to St-Alphonse/Lac Cloutier Seaplane Base

Forecast is more than 6 hours old.

Closest forecast is Ottawa / Gatineau Airport, 89.4 nm (165.6 km) WSW.

2024/05/29 18:00 (retrieved 10 hours ago)

TAF CYND 291740Z 2918/3001 32012KT P6SM FEW040 BKN240 RMK NXT FCST BY 301300Z